createdAt,value
2019-04-10T00:04:53.629Z,41.53
2019-04-10T00:09:47.607Z,42.97
2019-04-10T00:14:41.566Z,39.30
2019-04-10T00:19:35.903Z,37.40
2019-04-10T00:24:30.237Z,36.77
2019-04-10T00:29:24.572Z,36.33
2019-04-10T00:34:18.597Z,37.87
2019-04-10T00:39:12.687Z,37.57
2019-04-10T00:44:07.768Z,37.23
2019-04-10T00:49:01.995Z,41.03
2019-04-10T00:53:55.956Z,39.03
2019-04-10T00:58:51.185Z,40.53
2019-04-10T01:03:48.093Z,40.27
2019-04-10T01:08:41.304Z,36.73
2019-04-10T01:13:35.265Z,37.93
2019-04-10T01:18:29.233Z,36.37
2019-04-10T01:23:23.188Z,35.50
2019-04-10T01:28:17.153Z,40.37
2019-04-10T01:33:12.345Z,36.63
2019-04-10T01:38:06.608Z,37.40
2019-04-10T01:43:08.309Z,38.87
2019-04-10T01:47:56.604Z,38.33
2019-04-10T01:52:50.591Z,37.30
2019-04-10T01:57:44.707Z,35.97
2019-04-10T02:02:41.177Z,38.23
2019-04-10T02:07:35.216Z,34.83
2019-04-10T02:12:29.179Z,40.23
2019-04-10T02:17:24.349Z,36.40
2019-04-10T02:22:18.457Z,37.60
2019-04-10T02:27:12.446Z,34.90
2019-04-10T02:32:07.961Z,35.40
2019-04-10T02:37:02.546Z,33.83
2019-04-10T02:41:58.388Z,37.90
2019-04-10T02:46:54.898Z,39.47
2019-04-10T02:51:49.922Z,37.27
2019-04-10T02:56:45.885Z,34.83
2019-04-10T03:01:41.368Z,32.73
2019-04-10T03:06:35.671Z,36.70
2019-04-10T03:11:31.369Z,35.73
2019-04-10T03:16:25.697Z,35.03
2019-04-10T03:21:20.714Z,42.03
2019-04-10T03:26:15.353Z,37.20
2019-04-10T03:31:10.628Z,41.40
2019-04-10T03:36:05.417Z,38.73
2019-04-10T03:40:59.816Z,38.83
2019-04-10T03:45:55.039Z,37.30
2019-04-10T03:50:50.155Z,43.07
2019-04-10T03:55:45.255Z,35.93
2019-04-10T04:00:40.425Z,38.73
2019-04-10T04:05:34.987Z,39.03
2019-04-10T04:10:29.222Z,36.67
2019-04-10T04:15:24.015Z,36.83
2019-04-10T04:20:19.073Z,36.67
2019-04-10T04:25:13.133Z,35.13
2019-04-10T04:30:08.423Z,38.60
2019-04-10T04:35:04.634Z,38.23
2019-04-10T04:39:58.674Z,35.23
2019-04-10T04:44:52.757Z,34.63
2019-04-10T04:49:46.843Z,35.47
2019-04-10T04:54:41.512Z,35.97
2019-04-10T04:59:36.533Z,34.37
2019-04-10T05:04:32.297Z,32.20
2019-04-10T05:09:33.319Z,43.87
2019-04-10T05:14:23.792Z,29.67
2019-04-10T05:19:18.951Z,35.83
2019-04-10T05:24:13.717Z,29.83
2019-04-10T05:29:07.710Z,30.30
2019-04-10T05:34:01.742Z,31.33
2019-04-10T05:38:55.947Z,36.47
2019-04-10T05:43:50.936Z,31.77
2019-04-10T05:48:46.125Z,37.50
2019-04-10T05:53:40.840Z,28.57
2019-04-10T05:58:34.904Z,32.70
2019-04-10T06:03:28.875Z,33.03
2019-04-10T06:08:23.743Z,30.40
2019-04-10T06:13:17.823Z,34.93
2019-04-10T06:18:12.816Z,32.13
2019-04-10T06:23:08.070Z,29.83
2019-04-10T06:28:03.144Z,32.37
2019-04-10T06:32:57.901Z,36.53
2019-04-10T06:37:52.537Z,33.60
2019-04-10T06:42:50.803Z,31.07
2019-04-10T06:47:42.548Z,29.77
2019-04-10T06:52:36.702Z,30.17
2019-04-10T06:57:30.780Z,29.63
2019-04-10T07:02:28.279Z,30.50
2019-04-10T07:07:23.867Z,31.90
2019-04-10T07:12:16.570Z,28.50
2019-04-10T07:17:13.797Z,30.13
2019-04-10T07:22:11.605Z,29.80
2019-04-10T07:27:04.833Z,30.67
2019-04-10T07:31:59.180Z,32.83
2019-04-10T07:36:53.971Z,30.07
2019-04-10T07:41:48.016Z,31.67
2019-04-10T07:46:42.350Z,27.73
2019-04-10T07:51:36.724Z,30.20
2019-04-10T07:56:31.204Z,37.63
2019-04-10T08:01:26.360Z,26.90
2019-04-10T08:06:20.552Z,29.53
2019-04-10T08:11:15.467Z,30.53
2019-04-10T08:16:10.577Z,26.60
2019-04-10T08:21:05.028Z,27.87
2019-04-10T08:26:00.077Z,28.17
2019-04-10T08:30:54.696Z,33.33
2019-04-10T08:35:49.515Z,29.43
2019-04-10T08:40:43.926Z,25.07
2019-04-10T08:45:46.469Z,30.00
2019-04-10T08:50:34.438Z,27.47
2019-04-10T08:55:28.537Z,26.63
2019-04-10T09:00:22.733Z,26.07
2019-04-10T09:05:17.520Z,29.60
2019-04-10T09:10:12.334Z,28.07
2019-04-10T09:15:07.674Z,26.43
2019-04-10T09:20:04.534Z,28.37
2019-04-10T09:24:58.681Z,29.40
2019-04-10T09:29:54.166Z,27.77
2019-04-10T09:34:48.338Z,25.57
2019-04-10T09:39:43.411Z,29.50
2019-04-10T09:44:37.946Z,26.80
2019-04-10T09:49:38.983Z,25.53
2019-04-10T09:54:28.175Z,24.23
2019-04-10T09:59:33.981Z,22.70
2019-04-10T10:04:19.420Z,21.23
2019-04-10T10:09:14.780Z,29.70
2019-04-10T10:14:08.795Z,23.60
2019-04-10T10:19:02.889Z,23.13
2019-04-10T10:23:56.956Z,20.97
2019-04-10T10:28:50.947Z,26.42
2019-04-10T10:33:45.895Z,21.33
2019-04-10T10:38:40.110Z,27.55
2019-04-10T10:43:34.387Z,23.20
2019-04-10T10:48:29.479Z,26.62
2019-04-10T10:53:24.056Z,26.25
2019-04-10T10:58:18.173Z,22.07
2019-04-10T11:03:12.245Z,22.98
2019-04-10T11:08:06.900Z,21.57
2019-04-10T11:13:02.244Z,21.00
2019-04-10T11:17:56.627Z,22.13
2019-04-10T11:22:50.804Z,17.45
2019-04-10T11:27:44.878Z,21.77
2019-04-10T11:32:38.882Z,17.65
2019-04-10T11:37:41.157Z,21.20
2019-04-10T11:42:29.066Z,16.35
2019-04-10T11:47:26.366Z,14.60
2019-04-10T11:52:31.180Z,20.20
2019-04-10T11:57:19.811Z,15.45
2019-04-10T12:02:14.540Z,15.15
2019-04-10T12:07:11.184Z,21.33
2019-04-10T12:12:05.662Z,15.80
2019-04-10T12:16:59.856Z,19.65
2019-04-10T12:21:53.897Z,17.32
2019-04-10T12:26:47.886Z,16.50
2019-04-10T12:31:41.993Z,17.20
2019-04-10T12:36:36.424Z,16.50
2019-04-10T12:41:31.129Z,18.82
2019-04-10T12:46:25.172Z,15.70
2019-04-10T12:51:19.362Z,17.37
2019-04-10T12:56:13.770Z,15.28
2019-04-10T13:01:08.709Z,17.15
2019-04-10T13:06:03.369Z,14.95
2019-04-10T13:10:58.313Z,15.55
2019-04-10T13:15:53.966Z,20.17
2019-04-10T13:20:48.398Z,18.40
2019-04-10T13:25:42.844Z,15.83
2019-04-10T13:30:46.517Z,16.85
2019-04-10T13:35:35.138Z,15.93
2019-04-10T13:40:29.890Z,14.07
2019-04-10T13:45:24.001Z,15.45
2019-04-10T13:50:18.954Z,16.25
2019-04-10T13:55:13.337Z,13.88
2019-04-10T14:00:09.948Z,13.50
2019-04-10T14:05:07.395Z,13.50
2019-04-10T14:10:05.072Z,12.98
2019-04-10T14:14:59.294Z,18.75
2019-04-10T14:19:54.126Z,15.65
2019-04-10T14:24:49.772Z,16.35
2019-04-10T14:29:44.861Z,16.93
2019-04-10T14:34:39.179Z,14.53
2019-04-10T14:39:33.595Z,14.80
2019-04-10T14:44:28.577Z,15.43
2019-04-10T14:49:22.968Z,14.50
2019-04-10T14:54:17.590Z,23.73
2019-04-10T14:59:11.778Z,14.45
2019-04-10T15:04:05.760Z,17.90
2019-04-10T15:08:59.976Z,17.95
2019-04-10T15:13:55.044Z,16.60
2019-04-10T15:18:49.146Z,17.57
2019-04-10T15:23:43.286Z,13.72
2019-04-10T15:28:37.298Z,13.50
2019-04-10T15:33:31.767Z,16.30
2019-04-10T15:38:26.209Z,16.93
2019-04-10T15:43:23.429Z,16.30
2019-04-10T15:48:17.329Z,20.02
2019-04-10T15:53:11.755Z,18.23
2019-04-10T15:58:06.679Z,18.05
2019-04-10T16:03:00.829Z,19.80
2019-04-10T16:07:55.318Z,16.32
2019-04-10T16:12:50.085Z,16.50
2019-04-10T16:17:46.073Z,18.42
2019-04-10T16:22:42.658Z,17.32
2019-04-10T16:27:36.991Z,14.87
2019-04-10T16:32:31.091Z,17.87
2019-04-10T16:37:26.263Z,18.42
2019-04-10T16:45:44.370Z,20.95
2019-04-10T16:50:38.524Z,18.30
2019-04-10T16:55:32.617Z,17.73
2019-04-10T17:00:27.007Z,21.27
2019-04-10T17:05:21.228Z,23.02
2019-04-10T17:10:22.583Z,20.62
2019-04-10T17:15:13.354Z,20.25
2019-04-10T17:20:08.552Z,21.40
2019-04-10T17:25:04.727Z,21.37
2019-04-10T17:29:58.893Z,27.02
2019-04-10T17:34:52.905Z,19.73
2019-04-10T17:39:47.727Z,23.35
2019-04-10T17:44:42.219Z,24.90
2019-04-10T17:49:36.474Z,21.63
2019-04-10T17:54:31.425Z,26.20
2019-04-10T17:59:26.710Z,24.92
2019-04-10T18:04:22.063Z,21.27
2019-04-10T18:09:16.293Z,21.13
2019-04-10T18:14:11.172Z,24.00
2019-04-10T18:19:06.418Z,22.47
2019-04-10T18:24:01.954Z,23.07
2019-04-10T18:28:56.566Z,23.77
2019-04-10T18:33:51.082Z,21.67
2019-04-10T18:38:48.065Z,20.70
2019-04-10T18:43:42.499Z,19.13
2019-04-10T18:48:36.778Z,19.73
2019-04-10T18:53:31.003Z,21.63
2019-04-10T18:58:27.573Z,20.97
2019-04-10T19:03:23.620Z,20.17
2019-04-10T19:08:18.076Z,18.47
2019-04-10T19:16:48.032Z,21.70
2019-04-10T19:21:42.299Z,20.00
2019-04-10T19:26:37.670Z,18.97
2019-04-10T19:31:34.757Z,23.30
2019-04-10T19:36:29.905Z,22.13
2019-04-10T19:45:54.338Z,18.10
2019-04-10T19:50:49.812Z,16.30
2019-04-10T19:55:44.170Z,18.57
2019-04-10T20:00:38.830Z,17.37
2019-04-10T20:05:33.707Z,21.60
2019-04-10T20:10:27.936Z,18.47
2019-04-10T20:16:45.026Z,17.23
2019-04-10T20:21:39.751Z,17.33
2019-04-10T20:26:34.928Z,18.43
2019-04-10T20:31:31.201Z,16.37
2019-04-10T20:36:25.357Z,16.97
2019-04-10T20:41:19.508Z,16.47
2019-04-10T20:46:13.883Z,19.00
2019-04-10T20:51:08.281Z,17.90
2019-04-10T20:56:02.601Z,16.40
2019-04-10T21:00:56.999Z,15.20
2019-04-10T21:05:51.075Z,15.57
2019-04-10T21:10:45.195Z,16.07
2019-04-10T21:15:39.151Z,19.67
2019-04-10T21:20:34.498Z,15.30
2019-04-10T21:25:28.616Z,15.40
2019-04-10T21:30:24.503Z,16.30
2019-04-10T21:35:20.852Z,16.47
2019-04-10T21:40:15.057Z,17.20
2019-04-10T21:45:09.574Z,18.43
2019-04-10T21:50:04.663Z,14.63
2019-04-10T21:55:00.457Z,17.97
2019-04-10T21:59:54.715Z,19.87
2019-04-10T22:04:49.798Z,17.50
2019-04-10T22:10:01.546Z,16.87
2019-04-10T22:14:56.092Z,15.13
2019-04-10T22:19:50.737Z,15.67
2019-04-10T22:24:44.935Z,16.70
2019-04-10T22:29:39.029Z,18.70
2019-04-10T22:34:34.179Z,20.63
2019-04-10T22:39:29.692Z,15.30
2019-04-10T22:44:35.387Z,15.07
2019-04-10T22:49:20.266Z,16.17
2019-04-10T22:54:14.596Z,15.90
2019-04-10T22:59:08.740Z,17.47
2019-04-10T23:04:03.793Z,18.30
2019-04-10T23:08:58.084Z,18.90
2019-04-10T23:13:52.222Z,16.10
2019-04-10T23:18:46.198Z,15.67
2019-04-10T23:23:41.104Z,18.40
2019-04-10T23:28:35.785Z,16.10
2019-04-10T23:33:30.225Z,17.50
2019-04-10T23:38:24.273Z,21.00
2019-04-10T23:43:20.821Z,18.73
2019-04-10T23:48:14.912Z,16.17
2019-04-10T23:53:08.917Z,21.20
2019-04-10T23:58:02.893Z,17.03
